Terminal Aerodrome Forecast
Issued by NWS

Home | Current Version | Previous Version | Text Only | Print | Product List | Glossary Off
Versions: 1 2 3 4 5 6 7 8 9 10 11 12 13 14

000
FTUS45 KGGW 191720
TAFOLF
TAF
KOLF 191720Z 1918/2018 09012KT P6SM SCT025
      TEMPO 1918/1920 5SM BR BKN004
     FM201100 07006KT P6SM BKN030
     FM201300 07006KT P6SM BKN015
     FM201400 08007KT P6SM SCT015=

USA.gov is the U.S. government's official web portal to all federal, state and local government web resources and services.